Alturas, California
Current Conditions -  °F | °C
As of 3:30 AM on Saturday 20 Dec 2014 (Local Time) from KAAT Reporting Station
Light Rain Light Rain  
Wind Chill: -1°   Ceiling: 2600
Heat Index:   Visibility: 10mi
Dew Point:   Wind: 10mph
Humidity: 93%   Direction: 180°S
Pressure: 30.04"   Gusts: NA
Location:  41.49°N, 120.54°W
Report Text: KAAT 201130Z AUTO 18009KT 10SM -RA FEW019 OVC026 03/02 A3004 RMK AO2 P0002 T00330022
Loading
Personal Weather Stations






























Interactive Weather Map New forecast layout! Learn more

10-Day Weather Forecast

Advertisements
Track Severe Weather on mobile